Time;durP1;ratioP1;P1;durP2;ratioP2;P2;SDS_P1;SDS_P2;PMS_P1;PMS_P2;Temp;Humidity;BMP_temperature;BMP_pressure;BME280_temperature;BME280_humidity;BME280_pressure;Samples;Min_cycle;Max_cycle;Signal;HPM_P1;HPM_P2
2023/08/09 00:00:42;;;;;;;3.03;2.73;;;15.90;1.00;;;;;;6311185;22;20159;-45
2023/08/09 00:03:08;;;;;;;4.00;3.10;;;16.00;1.00;;;;;;6336553;22;20258;-46
2023/08/09 00:05:34;;;;;;;8.10;2.70;;;15.90;1.00;;;;;;6336543;22;20381;-47
2023/08/09 00:08:00;;;;;;;3.70;3.00;;;15.90;1.00;;;;;;6336216;22;20732;-45
2023/08/09 00:10:28;;;;;;;6.77;3.23;;;15.90;1.00;;;;;;6283462;22;20163;-45
2023/08/09 00:12:54;;;;;;;3.43;2.97;;;16.10;1.00;;;;;;6307975;22;20518;-45
2023/08/09 00:15:20;;;;;;;2.60;2.37;;;16.10;1.00;;;;;;6336214;22;20409;-45
2023/08/09 00:17:45;;;;;;;3.53;2.53;;;16.00;1.00;;;;;;6338964;22;20158;-45
2023/08/09 00:20:11;;;;;;;3.63;2.73;;;16.00;1.00;;;;;;6339048;22;20423;-45
2023/08/09 00:22:38;;;;;;;3.27;2.27;;;16.00;1.00;;;;;;6339925;22;20143;-45
2023/08/09 00:25:05;;;;;;;3.00;2.70;;;16.00;1.00;;;;;;6313488;22;20393;-45
2023/08/09 00:27:31;;;;;;;2.83;2.53;;;15.90;1.00;;;;;;6339333;22;20419;-45
2023/08/09 00:29:56;;;;;;;2.60;2.40;;;15.90;18.70;;;;;;6339728;22;20382;-45
2023/08/09 00:32:22;;;;;;;4.63;3.40;;;16.00;67.80;;;;;;6338579;22;20558;-45
2023/08/09 00:34:48;;;;;;;2.97;2.67;;;16.00;99.90;;;;;;6338462;22;20128;-45
2023/08/09 00:37:14;;;;;;;6.10;2.90;;;16.00;99.90;;;;;;6339922;22;20155;-45
2023/08/09 00:39:39;;;;;;;4.80;3.00;;;16.00;1.00;;;;;;6338313;22;20389;-45
2023/08/09 00:42:05;;;;;;;3.27;2.63;;;16.00;39.30;;;;;;6338929;22;20577;-45
2023/08/09 00:44:31;;;;;;;3.23;2.27;;;15.90;1.00;;;;;;6338367;22;20491;-45
2023/08/09 00:46:57;;;;;;;3.50;3.20;;;15.90;99.90;;;;;;6338587;22;20480;-44
2023/08/09 00:49:23;;;;;;;3.50;2.83;;;15.90;1.00;;;;;;6337033;22;20132;-45
2023/08/09 00:51:49;;;;;;;3.10;2.70;;;15.80;99.90;;;;;;6335797;22;20735;-45
2023/08/09 00:54:16;;;;;;;3.40;3.07;;;15.80;99.90;;;;;;6307061;22;20392;-45
2023/08/09 00:56:42;;;;;;;3.63;2.83;;;15.80;1.00;;;;;;6307187;22;20420;-45
2023/08/09 00:59:08;;;;;;;4.53;2.90;;;15.70;1.00;;;;;;6307695;22;20389;-46
2023/08/09 01:01:33;;;;;;;5.73;2.70;;;15.70;99.90;;;;;;6307607;22;20378;-49
2023/08/09 01:03:59;;;;;;;3.47;2.90;;;15.70;92.70;;;;;;6337953;22;20151;-45
2023/08/09 01:06:44;;;;;;;3.33;2.50;;;15.70;34.00;;;;;;6337777;22;20309;-45
2023/08/09 01:09:16;;;;;;;4.67;2.90;;;15.60;33.10;;;;;;6312018;22;20148;-46
2023/08/09 01:11:48;;;;;;;4.03;2.90;;;15.60;99.90;;;;;;6339588;22;20864;-45
2023/08/09 01:14:18;;;;;;;3.47;3.00;;;15.50;99.90;;;;;;6339887;22;20467;-45
2023/08/09 01:16:44;;;;;;;2.93;2.63;;;15.60;99.90;;;;;;6311117;22;20622;-45
2023/08/09 01:19:22;;;;;;;4.03;2.33;;;15.60;99.90;;;;;;6338065;22;20358;-45
2023/08/09 01:21:48;;;;;;;2.70;2.47;;;15.50;99.90;;;;;;6311752;22;20707;-45
2023/08/09 01:24:14;;;;;;;3.10;2.77;;;15.50;99.90;;;;;;6312418;22;20389;-45
2023/08/09 01:26:40;;;;;;;3.13;2.60;;;15.50;99.90;;;;;;6311753;22;20155;-46
2023/08/09 01:29:06;;;;;;;2.53;2.30;;;15.40;99.90;;;;;;6338979;22;20672;-45
2023/08/09 01:31:31;;;;;;;3.77;2.63;;;15.40;99.90;;;;;;6338886;22;20487;-45
2023/08/09 01:34:00;;;;;;;3.50;2.60;;;15.40;99.90;;;;;;6337542;22;20151;-45
2023/08/09 01:36:30;;;;;;;5.73;2.50;;;15.40;99.90;;;;;;6310258;22;20361;-45
2023/08/09 01:39:17;;;;;;;4.00;2.90;;;15.30;99.90;;;;;;6309751;22;20373;-45
2023/08/09 01:41:43;;;;;;;3.93;2.97;;;15.40;99.90;;;;;;6308101;22;20483;-46
2023/08/09 01:44:11;;;;;;;2.50;2.30;;;15.40;99.90;;;;;;6336506;22;20381;-45
2023/08/09 01:46:37;;;;;;;3.73;2.97;;;15.30;99.90;;;;;;6335345;22;20784;-45
2023/08/09 01:49:12;;;;;;;4.93;3.03;;;15.30;99.90;;;;;;6334813;22;20385;-45
2023/08/09 01:51:38;;;;;;;3.30;2.30;;;15.30;99.90;;;;;;6336884;22;20412;-46
2023/08/09 01:54:05;;;;;;;4.67;2.97;;;15.30;99.90;;;;;;6337049;22;20384;-46
2023/08/09 01:56:31;;;;;;;6.47;2.97;;;15.30;99.90;;;;;;6310139;22;20524;-46
2023/08/09 01:58:57;;;;;;;3.30;2.80;;;15.30;99.90;;;;;;6338037;22;20622;-45
2023/08/09 02:01:23;;;;;;;4.20;2.60;;;15.30;99.90;;;;;;6337021;22;20358;-45
2023/08/09 02:03:49;;;;;;;2.43;2.23;;;15.30;99.90;;;;;;6339064;22;20218;-46
2023/08/09 02:06:15;;;;;;;3.00;2.63;;;15.30;99.90;;;;;;6336571;22;20480;-44
2023/08/09 02:08:42;;;;;;;4.03;2.93;;;15.30;99.90;;;;;;6308238;22;20280;-44
2023/08/09 02:11:08;;;;;;;3.87;2.47;;;15.30;99.90;;;;;;6336844;22;20183;-44
2023/08/09 02:13:34;;;;;;;4.70;2.70;;;15.30;99.90;;;;;;6336867;22;20393;-44
2023/08/09 02:16:00;;;;;;;4.00;2.80;;;15.30;80.20;;;;;;6310452;22;20407;-44
2023/08/09 02:18:26;;;;;;;4.63;2.90;;;15.40;1.00;;;;;;6338900;22;20377;-44
2023/08/09 02:20:52;;;;;;;4.90;2.80;;;15.40;1.00;;;;;;6339221;22;20381;-44
2023/08/09 02:23:18;;;;;;;2.90;2.60;;;15.40;15.90;;;;;;6339530;22;20416;-44
2023/08/09 02:25:44;;;;;;;3.40;2.83;;;15.40;4.50;;;;;;6339464;22;20131;-44
2023/08/09 02:28:09;;;;;;;3.27;2.60;;;15.40;1.00;;;;;;6338123;22;20623;-44
2023/08/09 02:30:35;;;;;;;4.23;2.70;;;15.40;1.00;;;;;;6339090;22;20423;-44
2023/08/09 02:33:01;;;;;;;5.70;3.30;;;15.40;1.00;;;;;;6338941;22;20394;-44
2023/08/09 02:35:33;;;;;;;4.03;2.90;;;15.40;1.00;;;;;;6337363;22;20143;-44
2023/08/09 02:37:59;;;;;;;3.80;3.10;;;15.30;1.00;;;;;;6310323;22;20128;-44
2023/08/09 02:40:25;;;;;;;3.03;2.70;;;15.30;1.00;;;;;;6338169;22;20444;-44
2023/08/09 02:42:50;;;;;;;2.63;2.43;;;15.30;1.00;;;;;;6336080;22;20147;-44
2023/08/09 02:45:16;;;;;;;2.73;2.53;;;15.30;1.00;;;;;;6333894;22;20491;-44
2023/08/09 02:47:42;;;;;;;2.10;1.90;;;15.30;1.00;;;;;;6334451;22;20159;-44
2023/08/09 02:50:08;;;;;;;2.73;2.43;;;15.40;1.00;;;;;;6308743;22;20151;-44
2023/08/09 02:52:33;;;;;;;5.03;2.60;;;15.30;1.00;;;;;;6336525;22;20411;-44
2023/08/09 02:54:59;;;;;;;2.60;2.23;;;15.30;1.00;;;;;;6338284;22;20386;-44
2023/08/09 02:57:26;;;;;;;3.47;3.00;;;15.30;1.00;;;;;;6338295;22;20270;-44
2023/08/09 02:59:51;;;;;;;2.80;2.50;;;15.40;1.00;;;;;;6337850;22;20151;-44
2023/08/09 03:02:17;;;;;;;4.03;2.53;;;15.40;1.00;;;;;;6336572;22;20446;-44
2023/08/09 03:04:43;;;;;;;3.87;2.60;;;15.40;1.00;;;;;;6335719;22;20605;-44
2023/08/09 03:07:09;;;;;;;3.17;2.20;;;15.40;99.90;;;;;;6335799;22;20145;-45
2023/08/09 03:09:35;;;;;;;2.70;2.37;;;15.40;1.00;;;;;;6337864;22;20471;-44
2023/08/09 03:12:00;;;;;;;2.40;2.20;;;15.40;1.00;;;;;;6308908;22;20490;-44
2023/08/09 03:14:26;;;;;;;4.50;2.43;;;15.50;99.90;;;;;;6336622;22;20210;-44
2023/08/09 03:16:52;;;;;;;5.33;2.50;;;15.50;99.90;;;;;;6336394;22;20465;-44
2023/08/09 03:19:17;;;;;;;3.23;2.73;;;15.50;99.90;;;;;;6338208;22;20139;-44
2023/08/09 03:21:43;;;;;;;3.00;2.33;;;15.40;99.90;;;;;;6339731;22;20526;-45
2023/08/09 03:24:09;;;;;;;3.10;2.80;;;15.50;99.90;;;;;;6338994;22;20173;-44
2023/08/09 03:26:35;;;;;;;2.60;2.27;;;15.40;99.90;;;;;;6339583;22;20430;-44
2023/08/09 03:29:01;;;;;;;3.47;3.00;;;15.40;99.90;;;;;;6339367;22;20160;-44
2023/08/09 03:31:27;;;;;;;4.10;3.07;;;15.50;99.90;;;;;;6339976;22;20432;-44
2023/08/09 03:33:52;;;;;;;5.23;2.83;;;15.50;99.90;;;;;;6340168;22;20197;-44
2023/08/09 03:36:20;;;;;;;2.90;2.47;;;15.50;99.90;;;;;;6338263;22;20436;-44
2023/08/09 03:38:45;;;;;;;3.67;2.90;;;15.50;99.90;;;;;;6338429;22;20151;-44
2023/08/09 03:41:11;;;;;;;5.03;2.80;;;15.50;99.90;;;;;;6338761;22;20436;-45
2023/08/09 03:43:36;;;;;;;3.40;2.53;;;15.60;1.00;;;;;;6339545;22;20170;-44
2023/08/09 03:46:04;;;;;;;2.43;2.23;;;15.60;1.00;;;;;;6337375;22;20151;-44
2023/08/09 03:48:29;;;;;;;4.20;2.40;;;15.60;1.00;;;;;;6335584;22;20266;-45
2023/08/09 03:50:55;;;;;;;4.80;2.70;;;15.60;1.30;;;;;;6334312;22;20856;-44
2023/08/09 03:53:21;;;;;;;3.03;2.60;;;15.60;1.00;;;;;;6333423;22;20154;-45
2023/08/09 03:55:46;;;;;;;3.20;2.73;;;15.60;1.00;;;;;;6335529;22;20127;-45
2023/08/09 03:58:12;;;;;;;3.10;2.40;;;15.60;1.00;;;;;;6339411;22;20135;-45
2023/08/09 04:00:38;;;;;;;3.37;2.33;;;15.60;1.00;;;;;;6338785;22;20144;-44
2023/08/09 04:03:03;;;;;;;4.30;2.60;;;15.70;1.00;;;;;;6340165;22;20204;-44
2023/08/09 04:05:29;;;;;;;3.10;2.60;;;15.60;1.00;;;;;;6340208;22;20482;-44
2023/08/09 04:07:57;;;;;;;2.47;2.27;;;15.60;17.70;;;;;;6338759;22;20358;-44
2023/08/09 04:10:22;;;;;;;2.80;2.23;;;15.60;40.20;;;;;;6340050;22;20665;-44
2023/08/09 04:12:48;;;;;;;3.37;2.37;;;15.60;1.90;;;;;;6340455;22;20479;-49
2023/08/09 04:15:14;;;;;;;3.30;2.50;;;15.60;17.10;;;;;;6340435;22;20186;-44
2023/08/09 04:17:40;;;;;;;2.60;2.30;;;15.60;1.00;;;;;;6309713;22;20155;-44
2023/08/09 04:20:09;;;;;;;2.77;2.57;;;15.60;1.00;;;;;;6338994;22;20474;-44
2023/08/09 04:22:35;;;;;;;2.70;2.43;;;15.70;1.00;;;;;;6339256;22;20741;-44
2023/08/09 04:25:01;;;;;;;3.53;2.63;;;15.70;1.00;;;;;;6338549;22;20779;-44
2023/08/09 04:27:26;;;;;;;3.43;2.67;;;15.70;1.00;;;;;;6338896;22;20389;-44
2023/08/09 04:29:52;;;;;;;3.00;2.50;;;15.70;1.00;;;;;;6337852;22;20407;-44
2023/08/09 04:32:18;;;;;;;7.33;2.30;;;15.60;1.00;;;;;;6338315;22;20179;-44
2023/08/09 04:34:43;;;;;;;8.67;2.57;;;15.70;1.00;;;;;;6336311;22;20127;-44
2023/08/09 04:37:10;;;;;;;2.77;2.20;;;15.60;1.00;;;;;;6336762;22;20146;-45
2023/08/09 04:39:35;;;;;;;3.10;2.67;;;15.60;1.00;;;;;;6335009;22;20208;-45
2023/08/09 04:42:03;;;;;;;3.37;2.77;;;15.60;1.00;;;;;;6337350;22;20389;-45
2023/08/09 04:44:29;;;;;;;3.10;2.80;;;15.60;1.00;;;;;;6338781;22;20222;-45
2023/08/09 04:46:55;;;;;;;2.37;2.17;;;15.60;1.00;;;;;;6336291;22;20422;-45
2023/08/09 04:49:20;;;;;;;5.83;2.67;;;15.60;1.00;;;;;;6336516;22;20135;-45
2023/08/09 04:51:46;;;;;;;3.00;2.27;;;15.60;11.20;;;;;;6337017;22;20742;-45
2023/08/09 04:54:12;;;;;;;2.77;2.57;;;15.70;49.00;;;;;;6336865;22;20234;-45
2023/08/09 04:56:38;;;;;;;2.90;2.50;;;15.70;99.90;;;;;;6337229;22;20414;-45
2023/08/09 04:59:04;;;;;;;2.70;2.50;;;15.60;99.90;;;;;;6337460;22;20218;-45
2023/08/09 05:01:29;;;;;;;3.93;2.37;;;15.70;99.90;;;;;;6336436;22;20468;-45
2023/08/09 05:03:55;;;;;;;3.43;2.53;;;15.60;99.90;;;;;;6335885;22;20445;-45
2023/08/09 05:06:22;;;;;;;4.03;2.90;;;15.60;99.90;;;;;;6336574;22;20155;-45
2023/08/09 05:08:48;;;;;;;3.20;2.80;;;15.60;99.90;;;;;;6337642;22;20442;-45
2023/08/09 05:11:13;;;;;;;2.50;2.17;;;15.60;99.90;;;;;;6337650;22;20459;-45
2023/08/09 05:13:40;;;;;;;2.83;2.00;;;15.60;99.90;;;;;;6333997;22;20140;-45
2023/08/09 05:16:05;;;;;;;2.80;2.40;;;15.60;99.90;;;;;;6334226;22;20502;-45
2023/08/09 05:18:31;;;;;;;3.20;2.20;;;15.60;1.00;;;;;;6335940;22;20401;-45
2023/08/09 05:20:58;;;;;;;2.83;2.20;;;15.50;1.00;;;;;;6335562;22;20151;-45
2023/08/09 05:23:23;;;;;;;3.17;2.20;;;15.50;1.00;;;;;;6336266;22;20147;-45
2023/08/09 05:25:49;;;;;;;5.27;2.50;;;15.70;1.00;;;;;;6336023;22;20396;-43
2023/08/09 05:28:15;;;;;;;3.60;2.30;;;15.80;1.00;;;;;;6335945;22;20531;-43
2023/08/09 05:30:40;;;;;;;4.00;2.13;;;16.00;1.00;;;;;;6336685;22;20147;-43
2023/08/09 05:33:06;;;;;;;2.80;2.47;;;16.10;99.90;;;;;;6336031;22;20507;-43
2023/08/09 05:35:31;;;;;;;2.57;2.20;;;16.20;16.50;;;;;;6334179;22;20376;-43
2023/08/09 05:37:57;;;;;;;2.63;2.00;;;16.30;1.00;;;;;;6335171;22;20138;-44
2023/08/09 05:40:23;;;;;;;4.80;2.20;;;16.40;99.90;;;;;;6332999;22;20132;-43
2023/08/09 05:42:48;;;;;;;5.53;2.90;;;16.50;99.90;;;;;;6333264;22;20151;-44
2023/08/09 05:45:14;;;;;;;2.63;2.07;;;16.60;1.00;;;;;;6335267;22;20166;-43
2023/08/09 05:47:40;;;;;;;3.70;3.03;;;16.60;1.00;;;;;;6334249;22;20162;-44
2023/08/09 05:50:06;;;;;;;3.20;2.50;;;16.60;1.00;;;;;;6333731;22;20567;-44
2023/08/09 05:52:32;;;;;;;3.00;1.90;;;16.70;99.90;;;;;;6336087;22;20411;-44
2023/08/09 05:54:58;;;;;;;3.53;2.03;;;16.70;99.90;;;;;;6335916;22;20384;-43
2023/08/09 05:57:25;;;;;;;10.07;2.30;;;16.70;1.00;;;;;;6333302;22;20421;-45
2023/08/09 05:59:51;;;;;;;5.47;2.23;;;16.90;1.00;;;;;;6334110;22;20155;-44
2023/08/09 06:02:17;;;;;;;3.00;2.10;;;17.00;99.90;;;;;;6334070;22;20381;-44
2023/08/09 06:04:43;;;;;;;2.87;2.30;;;17.00;99.90;;;;;;6332647;22;20140;-44
2023/08/09 06:07:09;;;;;;;3.27;2.30;;;17.00;99.90;;;;;;6332946;22;20205;-44
2023/08/09 06:09:34;;;;;;;2.70;1.90;;;17.00;99.90;;;;;;6332206;22;20617;-46
2023/08/09 06:12:04;;;;;;;6.07;2.60;;;17.00;20.80;;;;;;6334077;22;20444;-44
2023/08/09 06:14:30;;;;;;;3.20;2.00;;;17.00;99.90;;;;;;6334730;22;20147;-44
2023/08/09 06:16:56;;;;;;;2.70;2.43;;;17.10;1.00;;;;;;6335182;22;20862;-44
2023/08/09 06:19:22;;;;;;;4.23;2.80;;;17.20;1.00;;;;;;6334159;22;20219;-44
2023/08/09 06:21:48;;;;;;;3.93;2.10;;;17.30;1.00;;;;;;6334182;22;20381;-44
2023/08/09 06:24:13;;;;;;;3.97;2.80;;;17.40;1.00;;;;;;6336631;22;20151;-44
2023/08/09 06:26:39;;;;;;;4.30;2.00;;;17.40;99.90;;;;;;6308609;22;20397;-44
2023/08/09 06:29:09;;;;;;;2.73;1.70;;;17.40;63.20;;;;;;6335895;22;20151;-44
2023/08/09 06:31:35;;;;;;;4.03;1.90;;;17.50;1.00;;;;;;6334671;22;20159;-44
2023/08/09 06:34:01;;;;;;;1.87;1.63;;;17.60;1.00;;;;;;6336575;22;20667;-44
2023/08/09 06:36:26;;;;;;;3.37;2.30;;;17.60;1.00;;;;;;6335278;22;20386;-44
2023/08/09 06:38:52;;;;;;;3.20;2.00;;;17.80;99.90;;;;;;6335768;22;20402;-44
2023/08/09 06:41:18;;;;;;;3.60;2.13;;;17.80;99.90;;;;;;6334903;22;20431;-44
2023/08/09 06:43:44;;;;;;;2.13;1.93;;;17.80;99.90;;;;;;6308489;22;20517;-44
2023/08/09 06:46:09;;;;;;;2.50;1.90;;;17.80;99.90;;;;;;6335315;22;20524;-44
2023/08/09 06:48:35;;;;;;;3.20;2.40;;;17.80;99.90;;;;;;6334084;22;20161;-44
2023/08/09 06:51:00;;;;;;;2.73;2.40;;;17.90;99.90;;;;;;6334087;22;20217;-44
2023/08/09 06:53:27;;;;;;;3.17;1.73;;;18.00;97.10;;;;;;6333052;22;20179;-44
2023/08/09 06:55:53;;;;;;;3.33;2.23;;;18.00;33.20;;;;;;6338227;22;20596;-44
2023/08/09 06:58:19;;;;;;;4.00;1.90;;;18.10;10.20;;;;;;6338530;22;20369;-44
2023/08/09 07:00:46;;;;;;;2.90;2.20;;;18.20;1.00;;;;;;6337081;22;20143;-44
2023/08/09 07:03:12;;;;;;;2.80;2.00;;;18.30;1.00;;;;;;6336678;22;20484;-44
2023/08/09 07:05:37;;;;;;;5.23;2.83;;;18.50;1.00;;;;;;6339082;22;20381;-44
2023/08/09 07:08:05;;;;;;;8.27;3.10;;;18.60;1.00;;;;;;6335687;22;20422;-44
2023/08/09 07:10:30;;;;;;;4.50;2.20;;;18.70;1.00;;;;;;6336650;22;20138;-44
2023/08/09 07:12:56;;;;;;;2.73;2.00;;;18.90;1.00;;;;;;6311226;22;20701;-44
2023/08/09 07:15:22;;;;;;;3.60;2.40;;;19.00;1.00;;;;;;6309528;22;20283;-44
2023/08/09 07:17:47;;;;;;;2.80;2.33;;;19.00;1.00;;;;;;6336502;22;20154;-44
2023/08/09 07:20:14;;;;;;;6.37;2.40;;;19.00;1.00;;;;;;6334949;22;20402;-44
2023/08/09 07:22:44;;;;;;;4.33;2.00;;;19.10;1.00;;;;;;6333598;22;20249;-43
2023/08/09 07:25:11;;;;;;;4.63;2.17;;;19.20;1.00;;;;;;6335039;22;20361;-45
2023/08/09 07:27:44;;;;;;;2.67;2.20;;;19.00;1.00;;;;;;6336957;22;20733;-45
2023/08/09 07:30:11;;;;;;;4.03;2.27;;;18.70;1.00;;;;;;6337741;22;20408;-45
2023/08/09 07:32:38;;;;;;;3.93;2.00;;;18.60;1.00;;;;;;6334691;22;20420;-45
2023/08/09 07:35:05;;;;;;;4.87;2.17;;;18.30;1.00;;;;;;6334580;22;20412;-44
2023/08/09 07:37:32;;;;;;;2.50;2.13;;;18.30;1.00;;;;;;6337172;22;20356;-45
2023/08/09 07:39:58;;;;;;;5.40;2.20;;;18.30;1.00;;;;;;6333441;22;20436;-45
2023/08/09 07:42:24;;;;;;;2.73;2.10;;;18.20;1.00;;;;;;6332718;22;20458;-44
2023/08/09 07:44:50;;;;;;;2.90;2.17;;;18.30;1.00;;;;;;6333734;22;20697;-45
2023/08/09 07:47:15;;;;;;;2.90;2.03;;;18.20;1.00;;;;;;6332090;22;20432;-45
2023/08/09 07:49:41;;;;;;;3.63;2.07;;;18.30;1.00;;;;;;6331562;22;20135;-45
2023/08/09 07:52:07;;;;;;;3.97;2.37;;;18.30;1.00;;;;;;6331678;22;20163;-45
2023/08/09 07:54:33;;;;;;;2.40;1.90;;;18.30;1.00;;;;;;6333327;22;20456;-44
2023/08/09 07:56:58;;;;;;;3.43;2.30;;;18.40;1.00;;;;;;6334836;22;20418;-45
2023/08/09 07:59:24;;;;;;;4.00;2.30;;;18.50;1.00;;;;;;6336393;22;20148;-45
2023/08/09 08:01:49;;;;;;;2.70;2.10;;;18.60;1.00;;;;;;6335782;22;20154;-45
2023/08/09 08:04:15;;;;;;;3.07;2.40;;;18.70;1.00;;;;;;6337065;22;20132;-45
2023/08/09 08:06:41;;;;;;;2.67;1.90;;;18.80;1.00;;;;;;6338055;22;20226;-45
2023/08/09 08:09:12;;;;;;;2.17;1.93;;;18.90;1.00;;;;;;6337654;22;20441;-45
2023/08/09 08:11:39;;;;;;;5.07;2.23;;;19.00;1.00;;;;;;6337340;22;20892;-45
2023/08/09 08:14:05;;;;;;;2.60;2.17;;;19.20;1.00;;;;;;6335507;22;20408;-45
2023/08/09 08:16:31;;;;;;;3.40;2.60;;;19.20;1.00;;;;;;6335910;22;20356;-45
2023/08/09 08:18:57;;;;;;;2.30;2.10;;;19.40;1.00;;;;;;6334018;22;20676;-45
2023/08/09 08:21:22;;;;;;;2.50;1.87;;;19.50;1.00;;;;;;6333434;22;20381;-45
2023/08/09 08:23:48;;;;;;;2.30;2.00;;;19.60;99.90;;;;;;6335251;22;20604;-45
2023/08/09 08:26:15;;;;;;;3.30;2.30;;;19.70;99.90;;;;;;6334803;22;20155;-45
2023/08/09 08:28:40;;;;;;;3.23;1.87;;;19.80;99.90;;;;;;6335275;22;20131;-44
2023/08/09 08:31:07;;;;;;;4.20;2.50;;;20.10;99.90;;;;;;6334952;22;20662;-45
2023/08/09 08:33:34;;;;;;;3.80;2.23;;;20.40;99.90;;;;;;6333732;22;20388;-44
2023/08/09 08:35:59;;;;;;;3.13;2.07;;;20.70;99.90;;;;;;6336061;22;20450;-44
2023/08/09 08:38:26;;;;;;;4.53;2.20;;;20.60;99.90;;;;;;6333655;22;20381;-45
2023/08/09 08:40:52;;;;;;;2.73;2.10;;;20.50;99.90;;;;;;6307174;22;20202;-45
2023/08/09 08:43:19;;;;;;;5.17;3.10;;;20.60;99.90;;;;;;6334712;22;20369;-45
2023/08/09 08:45:47;;;;;;;3.17;2.50;;;20.40;99.90;;;;;;6334334;22;20417;-44
2023/08/09 08:48:13;;;;;;;2.83;2.50;;;20.30;99.90;;;;;;6308305;22;20381;-45
2023/08/09 08:50:39;;;;;;;4.40;2.17;;;20.10;99.90;;;;;;6335300;22;20454;-45
2023/08/09 08:53:06;;;;;;;2.70;2.30;;;20.00;99.90;;;;;;6335463;22;20486;-45
2023/08/09 08:55:32;;;;;;;2.80;1.97;;;20.00;99.90;;;;;;6335160;22;20358;-45
2023/08/09 08:57:58;;;;;;;3.97;1.87;;;20.00;99.90;;;;;;6305798;22;20467;-45
2023/08/09 09:00:24;;;;;;;5.20;2.40;;;19.90;99.90;;;;;;6332649;22;20468;-44
2023/08/09 09:02:50;;;;;;;3.97;2.33;;;20.00;99.90;;;;;;6306705;22;20529;-44
2023/08/09 09:05:16;;;;;;;4.40;2.43;;;20.00;99.90;;;;;;6335574;22;20545;-43
2023/08/09 09:07:45;;;;;;;4.43;2.30;;;19.90;99.90;;;;;;6338346;22;20150;-43
2023/08/09 09:10:12;;;;;;;5.57;2.40;;;19.80;99.90;;;;;;6338426;22;20405;-44
2023/08/09 09:12:41;;;;;;;3.53;2.10;;;19.90;99.90;;;;;;6336462;22;20742;-44
2023/08/09 09:15:14;;;;;;;3.13;2.60;;;19.70;99.90;;;;;;6334454;22;20437;-44
2023/08/09 09:17:42;;;;;;;3.77;1.90;;;19.80;99.90;;;;;;6334747;22;20424;-44
2023/08/09 09:20:20;;;;;;;4.03;2.10;;;19.90;99.90;;;;;;6333159;22;20646;-44
2023/08/09 09:22:48;;;;;;;3.50;2.37;;;19.90;99.90;;;;;;6334907;22;20384;-44
2023/08/09 09:25:14;;;;;;;2.87;2.27;;;19.90;99.90;;;;;;6332638;22;20450;-44
2023/08/09 09:27:40;;;;;;;2.57;2.37;;;19.80;99.90;;;;;;6335692;22;20377;-44
2023/08/09 09:30:13;;;;;;;4.73;2.40;;;19.70;99.90;;;;;;6336018;22;20386;-44
2023/08/09 09:32:51;;;;;;;3.37;2.10;;;19.80;99.90;;;;;;6335034;22;20545;-44
2023/08/09 09:35:21;;;;;;;3.13;2.20;;;19.70;99.90;;;;;;6334669;22;20452;-43
2023/08/09 09:37:51;;;;;;;6.20;2.30;;;19.90;99.90;;;;;;6334887;22;20369;-46
2023/08/09 09:40:31;;;;;;;2.30;2.10;;;19.90;99.90;;;;;;6334112;22;20381;-45
2023/08/09 09:42:58;;;;;;;3.50;2.27;;;20.00;99.90;;;;;;6306349;22;20396;-44
2023/08/09 09:45:34;;;;;;;3.33;2.47;;;20.10;99.90;;;;;;6308815;22;20381;-45
2023/08/09 09:48:01;;;;;;;3.83;2.43;;;20.20;99.90;;;;;;6308779;22;20389;-44
2023/08/09 09:50:29;;;;;;;4.00;2.20;;;20.30;99.90;;;;;;6335742;22;20714;-44
2023/08/09 09:52:56;;;;;;;3.23;2.33;;;20.40;99.90;;;;;;6308367;22;20417;-45
2023/08/09 09:55:27;;;;;;;5.40;2.70;;;20.40;99.90;;;;;;6336619;22;20392;-45
2023/08/09 09:57:57;;;;;;;2.30;2.10;;;20.20;99.90;;;;;;6308096;22;20428;-45
2023/08/09 10:00:27;;;;;;;8.07;2.47;;;20.00;99.90;;;;;;6302763;22;20419;-45
2023/08/09 10:02:53;;;;;;;5.73;2.30;;;19.90;99.90;;;;;;6331079;22;20364;-45
2023/08/09 10:05:35;;;;;;;2.50;2.20;;;19.80;99.90;;;;;;6302521;22;20369;-44
2023/08/09 10:08:07;;;;;;;4.00;2.40;;;19.80;99.90;;;;;;6300654;22;20484;-45
2023/08/09 10:10:34;;;;;;;3.33;2.70;;;19.90;99.90;;;;;;6327371;22;20388;-46
2023/08/09 10:13:01;;;;;;;4.83;2.80;;;19.90;99.90;;;;;;6300760;22;20448;-44
2023/08/09 10:15:44;;;;;;;4.23;2.50;;;19.90;99.90;;;;;;6326569;22;20404;-45
2023/08/09 10:18:15;;;;;;;4.70;2.40;;;19.90;99.90;;;;;;6301941;22;20474;-44
2023/08/09 10:20:50;;;;;;;5.80;2.43;;;19.80;99.90;;;;;;6331129;22;20466;-45
2023/08/09 10:23:28;;;;;;;4.57;2.40;;;19.80;99.90;;;;;;6307624;22;20830;-44
2023/08/09 10:25:55;;;;;;;3.57;2.27;;;20.00;99.90;;;;;;6308298;22;20473;-45
2023/08/09 10:28:44;;;;;;;3.40;3.10;;;20.10;99.90;;;;;;6336019;22;20484;-44
2023/08/09 10:31:09;;;;;;;3.00;2.50;;;20.00;99.90;;;;;;6335985;22;20413;-44
2023/08/09 10:33:35;;;;;;;5.80;3.23;;;20.00;99.90;;;;;;6307772;22;20372;-45
2023/08/09 10:36:03;;;;;;;3.63;2.40;;;20.20;99.90;;;;;;6305571;22;20466;-45
2023/08/09 10:38:32;;;;;;;3.67;2.73;;;20.10;99.90;;;;;;6334685;22;20476;-45
2023/08/09 10:40:59;;;;;;;4.47;2.00;;;20.10;99.90;;;;;;6332696;22;20498;-45
2023/08/09 10:43:27;;;;;;;5.20;2.40;;;20.30;99.90;;;;;;6334369;22;20389;-45
2023/08/09 10:45:53;;;;;;;2.60;2.30;;;20.20;99.90;;;;;;6306090;22;20787;-45
2023/08/09 10:48:24;;;;;;;4.43;2.70;;;20.20;99.90;;;;;;6329817;22;20440;-45
2023/08/09 10:51:07;;;;;;;6.00;2.90;;;20.40;99.90;;;;;;6280058;22;20958;-45
2023/08/09 10:53:56;;;;;;;4.33;2.37;;;20.60;99.90;;;;;;6333418;22;20416;-45
2023/08/09 10:56:33;;;;;;;3.93;2.03;;;21.10;99.90;;;;;;6334994;22;20417;-45
2023/08/09 10:59:14;;;;;;;4.30;2.47;;;21.20;99.90;;;;;;6332156;22;20708;-46
2023/08/09 11:01:41;;;;;;;5.30;3.60;;;21.10;99.90;;;;;;6331639;22;20381;-45
2023/08/09 11:04:12;;;;;;;4.67;2.90;;;21.30;99.90;;;;;;6301295;22;20480;-45
2023/08/09 11:06:43;;;;;;;4.33;2.10;;;21.50;99.90;;;;;;6334516;22;20747;-45
2023/08/09 11:09:12;;;;;;;5.07;2.47;;;22.00;99.90;;;;;;6336158;22;20448;-45
2023/08/09 11:11:40;;;;;;;2.97;2.67;;;22.30;99.90;;;;;;6335216;22;20412;-45
2023/08/09 11:14:06;;;;;;;3.80;2.50;;;22.30;99.90;;;;;;6307055;22;20413;-45
2023/08/09 11:16:32;;;;;;;3.17;2.40;;;22.30;99.90;;;;;;6333794;22;20579;-45
2023/08/09 11:19:09;;;;;;;3.30;2.20;;;22.90;58.40;;;;;;6336074;22;20468;-45
2023/08/09 11:21:41;;;;;;;4.40;2.10;;;23.10;42.20;;;;;;6309124;22;20361;-45
2023/08/09 11:24:09;;;;;;;2.90;1.70;;;23.20;14.00;;;;;;6336365;22;20369;-45
2023/08/09 11:26:36;;;;;;;2.97;1.73;;;23.70;1.00;;;;;;6337225;22;20773;-45
2023/08/09 11:29:03;;;;;;;2.33;1.97;;;24.30;1.00;;;;;;6306957;22;20459;-45
2023/08/09 11:31:34;;;;;;;2.17;1.70;;;24.50;1.00;;;;;;6336204;22;20816;-44
2023/08/09 11:34:00;;;;;;;4.40;2.70;;;25.30;1.00;;;;;;6310395;22;20672;-45
2023/08/09 11:36:32;;;;;;;5.57;2.90;;;25.70;1.00;;;;;;6336033;22;20342;-45
2023/08/09 11:38:58;;;;;;;3.70;2.47;;;25.60;1.00;;;;;;6305762;22;20369;-45
2023/08/09 11:41:25;;;;;;;2.90;2.10;;;25.20;1.00;;;;;;6333490;22;20773;-45
2023/08/09 11:43:54;;;;;;;2.97;2.20;;;25.10;1.00;;;;;;6333717;22;20728;-45
2023/08/09 11:46:21;;;;;;;5.00;2.30;;;25.00;1.00;;;;;;6334117;22;20412;-45
2023/08/09 11:48:49;;;;;;;2.10;1.90;;;25.40;1.00;;;;;;6331701;22;20369;-45
2023/08/09 11:51:17;;;;;;;2.80;2.50;;;25.30;1.00;;;;;;6333262;22;20431;-44
2023/08/09 11:53:44;;;;;;;3.80;2.30;;;25.10;1.00;;;;;;6332622;22;20381;-45
2023/08/09 11:56:22;;;;;;;4.97;2.47;;;24.70;1.00;;;;;;6335369;22;20436;-44
2023/08/09 11:58:52;;;;;;;3.43;2.10;;;25.30;1.00;;;;;;6336701;22;20430;-45
2023/08/09 12:01:23;;;;;;;2.57;1.97;;;26.40;1.00;;;;;;6334158;22;20483;-45
2023/08/09 12:03:54;;;;;;;3.90;1.90;;;26.20;1.00;;;;;;6335347;22;20353;-45
2023/08/09 12:06:34;;;;;;;4.33;3.03;;;25.90;1.00;;;;;;6334927;22;20362;-44
2023/08/09 12:09:00;;;;;;;5.60;2.40;;;25.20;1.00;;;;;;6334398;22;20465;-44
2023/08/09 12:11:26;;;;;;;2.60;2.20;;;24.80;1.00;;;;;;6308387;22;20421;-45
2023/08/09 12:13:53;;;;;;;3.67;2.47;;;24.20;1.00;;;;;;6335799;22;20385;-45
2023/08/09 12:16:19;;;;;;;3.33;2.23;;;24.50;1.00;;;;;;6336167;22;20184;-45
2023/08/09 12:18:44;;;;;;;2.27;2.03;;;24.60;1.00;;;;;;6332283;22;20395;-45
2023/08/09 12:21:10;;;;;;;2.70;2.20;;;24.50;1.00;;;;;;6334030;22;20380;-45
2023/08/09 12:23:36;;;;;;;2.60;2.40;;;24.10;1.00;;;;;;6334306;22;20542;-45
2023/08/09 12:26:03;;;;;;;4.63;2.20;;;24.00;1.00;;;;;;6337353;22;20542;-45
2023/08/09 12:28:30;;;;;;;2.73;2.40;;;24.10;1.00;;;;;;6337435;22;20385;-45
2023/08/09 12:30:55;;;;;;;3.93;2.30;;;23.70;1.00;;;;;;6282034;22;20701;-45
2023/08/09 12:33:21;;;;;;;3.27;2.53;;;23.90;1.00;;;;;;6333783;22;20396;-45
2023/08/09 12:35:47;;;;;;;3.00;2.50;;;23.80;1.00;;;;;;6336375;22;20151;-45
2023/08/09 12:38:12;;;;;;;2.47;2.27;;;24.20;1.00;;;;;;6337586;22;20526;-44
2023/08/09 12:40:38;;;;;;;4.20;2.20;;;24.20;1.00;;;;;;6336458;22;20179;-45
2023/08/09 12:43:04;;;;;;;3.33;2.10;;;24.00;1.00;;;;;;6333986;22;20155;-45
2023/08/09 12:45:30;;;;;;;2.10;1.90;;;24.20;1.00;;;;;;6333061;22;20325;-45
2023/08/09 12:47:55;;;;;;;2.83;2.23;;;24.10;1.00;;;;;;6332455;22;20404;-45
2023/08/09 12:50:22;;;;;;;3.77;2.10;;;23.60;1.00;;;;;;6308605;22;20159;-45
2023/08/09 12:52:48;;;;;;;5.60;2.13;;;23.60;1.00;;;;;;6336060;22;20214;-45